Date,TemperatureHighF,TemperatureAvgF,TemperatureLowF,DewpointHighF,DewpointAvgF,DewpointLowF,HumidityHigh,HumidityAvg,HumidityLow,PressureMaxIn,PressureMinIn,WindSpeedMaxMPH,WindSpeedAvgMPH,GustSpeedMaxMPH,PrecipitationSumIn
2013-1-1,32,28,0,31,26,-100,97,93,90,30.20,30.06,1,0,4,0.01
2013-1-2,25,19,11,20,14,9,93,82,61,30.30,30.19,1,0,4,0.00
2013-1-3,33,24,18,26,18,9,87,77,66,30.38,30.25,3,1,9,0.01
2013-1-4,32,28,25,26,23,22,90,81,69,30.41,30.35,5,2,12,0.01
2013-1-5,39,31,25,31,26,22,93,83,62,30.37,30.17,4,1,11,0.11
2013-1-6,37,32,26,33,28,22,89,85,79,30.40,30.05,5,2,15,0.07
2013-1-7,38,29,22,29,24,-100,94,83,68,30.48,30.25,5,1,13,0.06
2013-1-8,48,38,31,34,28,-100,85,72,52,30.30,30.21,3,1,11,0.05
2013-1-9,52,46,41,44,37,-100,96,79,67,30.50,30.21,5,1,14,0.10
2013-1-10,47,41,36,46,38,33,97,89,75,30.50,30.01,10,5,18,0.15
2013-1-11,59,55,47,54,51,46,97,88,76,30.01,29.85,7,3,18,0.73
2013-1-12,65,59,56,63,55,50,97,89,76,29.97,29.65,6,2,17,1.31
2013-1-13,65,38,24,63,37,22,97,96,91,30.22,29.60,7,2,18,2.13
2013-1-14,24,22,17,22,19,15,93,90,84,30.47,30.22,2,0,7,0.01
2013-1-15,33,26,18,27,21,-100,94,85,68,30.42,30.12,4,0,11,0.00
2013-1-16,34,30,28,27,24,-100,91,81,62,30.13,30.02,3,1,9,2.65
2013-1-17,41,33,26,34,25,-100,86,77,59,30.44,30.12,4,1,12,0.00
2013-1-18,41,32,22,29,23,18,86,71,48,30.53,30.22,6,2,16,0.00
2013-1-19,51,43,38,40,31,26,78,62,55,30.22,29.95,6,5,19,0.00
2013-1-20,45,32,24,40,18,10,82,58,39,30.27,29.98,6,2,16,0.00
2013-1-21,24,18,12,18,9,1,83,69,50,30.33,30.19,5,2,15,0.00
2013-1-22,17,11,5,5,1,-1,78,63,51,30.47,30.33,4,1,11,0.00
2013-1-23,32,21,13,20,11,3,76,65,51,30.43,30.16,4,1,10,0.00
2013-1-24,27,21,14,20,9,3,83,60,39,30.61,30.19,5,2,17,0.00
2013-1-25,29,24,20,22,16,5,86,71,48,30.41,30.10,7,2,17,0.00
2013-1-26,35,27,19,23,19,16,87,73,53,30.43,30.15,5,1,10,0.01
2013-1-27,41,30,23,39,26,18,97,83,68,30.41,30.10,6,4,15,0.20
2013-1-28,57,51,41,56,49,40,97,93,80,30.13,30.00,6,4,20,0.34
2013-1-29,66,60,55,60,56,53,95,89,82,30.00,29.44,10,5,25,0.01
2013-1-30,68,47,27,62,43,-100,97,91,79,29.68,29.27,10,4,30,0.67
2013-1-31,30,24,11,24,18,6,93,79,67,30.19,29.68,8,4,25,0.01
2013-2-1,17,11,5,10,5,1,85,79,69,30.49,30.19,5,2,15,0.00
2013-2-2,29,24,14,26,20,10,94,87,75,30.35,30.06,6,2,15,0.01
2013-2-3,27,21,16,24,18,12,96,88,79,30.17,30.01,4,1,10,0.01
2013-2-4,40,30,18,34,26,16,95,84,65,30.15,29.83,6,2,13,0.08
2013-2-5,40,33,26,35,30,24,95,87,78,30.06,29.88,4,1,12,0.01
2013-2-6,37,32,30,33,29,26,89,85,78,30.28,30.06,5,1,11,0.01
2013-2-7,62,44,31,48,36,28,95,76,45,30.18,29.81,5,2,11,0.04
2013-2-8,47,34,31,46,31,26,96,89,80,30.37,29.83,4,2,14,0.04
2013-2-9,43,34,26,31,27,23,89,74,59,30.42,30.27,6,2,14,1.84
2013-2-10,52,46,37,50,37,-100,95,76,60,30.27,29.73,9,4,23,2.40
2013-2-11,53,43,37,50,34,28,94,72,60,30.08,29.73,8,5,22,0.00
2013-2-12,45,37,28,33,29,25,89,74,56,30.15,29.92,3,1,9,0.00
2013-2-13,35,31,30,30,28,27,90,87,81,29.92,29.84,1,0,5,2.50
2013-2-14,51,39,30,40,33,27,94,79,62,30.03,29.84,6,2,14,2.50
2013-2-15,37,33,26,31,26,18,89,75,60,30.20,29.99,4,1,12,3.48
2013-2-16,29,24,19,19,16,12,89,72,52,30.18,30.13,5,1,11,0.00
2013-2-17,35,25,14,17,14,9,90,65,43,30.28,30.16,3,0,10,0.00
2013-2-18,58,42,29,44,31,-100,93,67,45,30.17,29.63,10,5,29,0.40
2013-2-19,47,29,23,45,22,-100,95,79,70,30.20,29.63,7,5,20,0.53
2013-2-20,27,21,14,16,13,10,83,71,58,30.38,30.20,4,1,14,0.01
2013-2-21,32,24,17,29,20,-100,96,85,70,30.36,29.98,11,3,24,0.01
2013-2-22,37,34,0,34,31,-100,97,92,83,30.02,29.85,7,2,21,0.09
2013-2-23,38,31,24,28,22,-100,89,76,60,30.03,29.95,3,1,9,0.07
2013-2-24,44,32,21,29,25,20,95,76,55,30.16,30.00,2,0,6,0.01
2013-2-25,48,37,27,29,27,24,87,69,47,30.15,29.82,11,4,24,0.00
2013-2-26,44,39,34,43,36,27,98,89,62,29.82,29.37,11,4,25,1.24
2013-2-27,40,34,32,38,32,30,97,95,90,29.76,29.52,6,4,17,0.08
2013-2-28,36,33,31,34,32,29,96,95,91,30.02,29.75,4,2,10,0.05
2013-3-1,34,32,31,32,30,29,97,93,86,30.08,29.98,2,0,7,0.04
2013-3-2,31,29,27,29,25,22,94,87,73,30.15,30.06,3,1,8,0.01
2013-3-3,36,28,21,25,21,16,94,75,48,30.16,30.09,2,0,8,0.01
2013-3-4,39,32,23,27,23,18,92,69,56,30.14,29.94,9,4,19,0.01
2013-3-5,39,35,28,36,31,27,97,86,64,29.94,29.66,7,4,16,0.13
2013-3-6,31,29,28,29,28,27,97,95,93,30.32,29.79,3,1,11,0.02
2013-3-7,35,31,28,32,28,27,96,90,79,30.42,30.31,1,0,6,0.05
2013-3-8,47,37,27,32,28,24,91,73,50,30.49,30.36,6,1,13,0.01
2013-3-9,58,45,33,38,33,27,83,64,45,30.36,29.98,6,4,17,0.00
2013-3-10,67,59,53,47,40,36,65,50,36,29.98,29.72,9,4,26,0.02
2013-3-11,59,45,34,51,42,31,96,89,66,29.90,29.62,6,4,19,0.17
2013-3-12,44,36,32,32,29,26,92,77,53,30.08,29.91,6,3,16,0.01
2013-3-13,33,29,25,31,22,19,93,78,66,30.38,30.07,5,2,16,0.00
2013-3-14,41,30,23,31,24,20,96,80,47,30.39,30.22,5,1,10,0.00
2013-3-15,56,42,30,44,36,29,96,81,59,30.21,29.71,6,1,13,0.06
2013-3-16,60,51,37,52,44,33,85,76,69,30.01,29.61,6,2,15,0.01
2013-3-17,38,35,33,33,31,29,96,85,78,30.11,29.92,8,3,23,0.28
2013-3-18,44,38,33,43,37,32,98,95,90,29.92,29.65,13,5,30,1.21
2013-3-19,42,34,26,35,24,20,94,66,41,30.17,29.87,7,4,17,0.01
2013-3-20,35,30,25,23,18,11,73,61,52,30.16,30.06,5,2,14,0.00
2013-3-21,36,26,18,16,13,11,88,61,41,30.10,30.02,3,1,10,0.00
2013-3-22,47,34,24,24,18,13,65,52,33,30.10,30.00,3,0,10,0.00
2013-3-23,54,43,36,29,25,22,63,51,34,30.06,29.86,6,1,14,0.00
2013-3-24,41,36,30,34,30,26,97,81,57,29.86,29.40,9,2,27,0.07
2013-3-25,32,30,28,31,29,27,97,96,94,30.05,29.48,1,0,7,0.02
2013-3-26,40,33,28,33,28,25,97,84,63,30.30,30.05,3,1,9,0.34
2013-3-27,43,35,28,30,27,25,90,72,52,30.37,30.30,3,1,9,0.12
2013-3-28,52,40,29,33,28,24,81,63,45,30.40,30.29,2,0,8,0.01
2013-3-29,57,46,36,35,31,28,75,57,36,30.33,30.20,5,1,10,0.00
2013-3-30,62,50,40,40,36,31,75,58,44,30.23,29.92,5,2,13,0.00
2013-3-31,59,50,45,46,44,-100,97,82,58,29.92,29.80,6,1,14,0.05
2013-4-1,52,42,34,44,28,20,87,58,37,30.16,29.84,5,2,11,0.01
2013-4-2,46,36,27,23,19,16,77,52,30,30.31,30.16,3,1,8,0.00
2013-4-3,50,40,30,23,18,14,53,41,29,30.41,30.28,6,2,15,0.00
2013-4-4,61,46,34,26,22,19,58,40,21,30.32,30.00,6,1,13,0.00
2013-4-5,61,51,44,38,28,21,50,41,32,30.12,30.00,3,0,7,0.00
2013-4-6,72,56,43,43,36,28,62,46,32,30.11,29.83,7,4,23,0.00
2013-4-7,73,65,58,55,47,40,88,55,42,29.95,29.81,6,3,18,0.13
2013-4-8,71,63,55,59,55,52,96,78,61,29.95,29.82,6,2,18,0.20
2013-4-9,79,69,59,63,59,54,84,70,50,29.97,29.86,6,3,21,0.00
2013-4-10,81,73,67,67,64,61,88,73,59,29.89,29.68,6,3,18,0.11
2013-4-11,75,61,48,62,58,46,97,90,59,29.74,29.53,6,3,17,0.76
2013-4-12,47,42,36,46,36,32,97,79,64,29.95,29.59,6,3,15,0.09
2013-4-13,55,46,37,38,36,34,90,69,50,30.02,29.95,7,2,17,0.00
2013-4-14,75,58,43,49,42,36,82,58,34,30.00,29.78,6,3,21,0.00
2013-4-15,73,63,57,59,54,47,81,72,58,29.94,29.83,7,3,20,0.00
2013-4-16,72,62,53,65,58,52,98,86,78,30.11,29.87,6,2,19,0.74
2013-4-17,79,60,52,72,59,52,100,95,75,30.12,29.86,11,2,25,0.96
2013-4-18,78,70,62,67,64,56,99,82,58,29.86,29.54,7,3,23,0.43
2013-4-19,57,41,38,56,36,31,98,84,69,30.01,29.53,6,4,20,0.74
2013-4-20,50,41,33,36,31,28,92,69,44,30.39,30.01,3,1,11,0.01
2013-4-21,60,46,34,36,31,28,78,57,34,30.50,30.33,7,2,18,0.00
2013-4-22,73,57,42,45,37,31,66,50,32,30.35,30.07,5,2,11,0.00
2013-4-23,66,59,53,58,50,42,95,73,54,30.09,29.76,4,2,18,0.10
2013-4-24,66,44,38,58,41,34,98,88,69,30.24,29.76,4,1,15,0.40
2013-4-25,56,46,36,43,35,32,90,69,41,30.38,30.24,6,2,13,0.01
2013-4-26,64,53,39,43,37,32,89,57,42,30.43,30.30,5,1,13,0.00
2013-4-27,60,54,47,53,46,38,97,75,54,30.33,29.96,6,2,15,0.04
2013-4-28,59,56,54,58,55,53,100,97,88,29.96,29.83,4,1,11,0.18
2013-4-29,71,60,53,58,54,52,100,84,56,29.99,29.89,3,0,11,0.01
2013-4-30,83,67,51,63,56,50,95,69,48,30.00,29.90,5,2,12,0.00
2013-5-1,84,73,61,60,56,53,78,58,41,30.10,30.00,3,1,11,0.00
2013-5-2,79,70,63,62,58,55,81,66,52,30.12,30.00,5,2,14,0.00
2013-5-3,75,67,60,62,58,55,96,75,52,30.01,29.83,7,2,19,0.08
2013-5-4,61,57,52,59,54,49,99,89,70,29.99,29.86,5,2,18,0.35
2013-5-5,54,52,51,54,52,50,100,99,96,29.98,29.88,6,2,17,0.89
2013-5-6,65,58,51,59,55,51,100,91,77,29.94,29.84,4,0,10,0.13
2013-5-7,72,63,56,60,57,54,95,80,59,29.97,29.91,3,0,11,0.01
2013-5-8,77,68,59,61,57,55,91,71,51,30.00,29.92,2,0,7,0.00
2013-5-9,78,66,60,66,59,56,97,80,47,29.99,29.86,3,0,16,0.51
2013-5-10,66,63,56,63,59,-100,98,93,89,29.88,29.79,2,0,9,0.50
2013-5-11,61,52,46,56,47,35,97,84,47,30.03,29.88,3,0,8,0.14
2013-5-12,56,48,39,39,33,-100,85,60,42,30.15,30.04,2,0,8,0.01
2013-5-13,64,54,42,41,36,33,81,53,34,30.21,30.11,2,0,7,0.00
2013-5-14,82,67,51,63,50,36,66,55,47,30.12,29.81,4,1,14,0.00
2013-5-15,85,76,68,65,62,59,73,62,47,29.89,29.80,4,2,12,0.00
2013-5-16,73,63,64,66,42,-100,96,82,68,29.94,29.82,4,1,13,0.01
2013-5-17,79,67,62,68,59,-100,97,85,49,30.00,29.94,4,0,12,0.01
2013-5-18,78,69,63,68,65,62,97,86,69,30.00,29.92,4,0,13,0.01
2013-5-19,87,75,62,72,68,61,100,81,58,29.94,29.81,3,0,8,0.00
2013-5-20,84,76,68,72,70,67,98,83,64,29.91,29.79,3,1,15,0.00
2013-5-21,80,72,62,69,66,61,99,82,63,29.89,29.74,5,1,16,0.29
2013-5-22,73,68,64,65,63,59,96,85,70,29.76,29.70,4,1,14,0.02
2013-5-23,65,59,49,61,56,46,99,91,79,30.14,29.76,1,0,8,0.04
2013-5-24,66,53,42,49,44,40,98,74,45,30.35,30.14,1,0,7,0.01
2013-5-25,63,56,48,54,46,38,95,72,52,30.37,30.20,2,0,6,0.05
2013-5-26,67,57,49,59,53,48,97,88,70,30.27,30.12,5,1,13,0.15
2013-5-27,81,68,56,68,61,55,98,80,57,30.13,29.88,4,2,15,0.55
2013-5-28,81,73,63,70,66,62,97,81,65,29.95,29.84,5,1,17,0.31
2013-5-29,86,77,70,68,64,59,76,65,49,30.01,29.92,3,1,12,0.00
2013-5-30,84,77,71,72,68,65,84,74,65,30.02,29.90,4,2,16,0.00
2013-5-31,76,71,63,71,68,62,100,90,79,29.97,29.84,3,1,14,0.88
2013-6-1,74,68,63,71,66,63,100,93,86,29.89,29.73,6,1,20,0.45
2013-6-2,67,64,61,65,62,60,99,90,83,29.89,29.81,1,0,7,0.01
2013-6-3,68,64,54,61,57,49,87,80,63,30.06,29.89,0,0,4,0.01
2013-6-4,75,62,51,60,50,-100,88,71,57,30.11,30.01,4,1,11,0.00
2013-6-5,81,69,59,65,58,50,76,67,51,30.04,29.83,3,0,9,0.00
2013-6-6,79,71,62,69,63,60,97,78,58,29.83,29.73,0,0,5,0.02
2013-6-7,76,66,62,65,62,60,98,87,57,29.85,29.76,3,0,8,0.01
2013-6-8,80,69,60,66,62,59,95,79,55,29.97,29.84,2,0,7,0.00
2013-6-9,81,71,64,68,65,61,97,82,51,29.99,29.79,3,0,9,0.23
2013-6-10,74,68,65,68,66,64,99,91,77,29.86,29.74,2,0,9,0.25
2013-6-11,84,73,62,71,66,61,97,81,56,29.96,29.85,1,0,7,0.01
2013-6-12,89,81,74,78,74,69,95,80,63,29.90,29.67,3,0,14,0.00
2013-6-13,83,75,65,73,66,56,87,74,54,29.94,29.61,3,1,13,0.00
2013-6-14,80,69,56,65,60,54,95,76,53,30.04,29.91,1,0,7,0.00
2013-6-15,82,74,63,67,63,60,97,71,52,30.07,29.91,4,0,13,0.00
2013-6-16,75,69,66,70,67,62,99,91,67,30.00,29.92,2,0,8,0.14
2013-6-17,86,74,65,75,70,64,100,89,64,29.94,29.83,6,0,19,0.47
2013-6-18,83,69,63,72,66,62,100,90,67,29.95,29.84,5,0,13,0.49
2013-6-19,82,71,62,68,65,62,99,82,59,30.06,29.94,4,1,11,0.04
2013-6-20,86,74,66,70,65,62,90,76,52,30.15,30.06,3,0,12,0.01
2013-6-22,86,76,69,75,71,68,98,86,67,30.10,29.98,3,0,9,0.02
2013-6-23,83,74,65,74,70,65,100,89,70,30.08,29.99,4,0,11,0.05
2013-6-24,80,74,69,74,70,68,96,90,81,30.10,30.00,2,0,6,0.02
2013-6-25,87,77,68,78,73,66,97,86,71,30.00,29.85,2,0,7,0.01
2013-6-26,79,68,65,75,68,65,100,98,89,29.95,29.71,3,0,11,1.41
2013-6-27,85,74,66,77,71,66,100,90,70,29.77,29.72,0,0,4,0.01
2013-6-28,83,76,69,72,66,63,95,74,57,29.72,29.58,1,0,6,0.01
2013-6-29,74,67,63,70,65,62,100,93,77,29.64,29.56,0,0,5,0.28
2013-6-30,73,66,63,70,65,63,100,98,85,29.81,29.63,0,0,10,0.34
2013-7-1,70,66,64,68,65,62,100,97,91,29.88,29.80,0,0,8,0.22
2013-7-2,79,67,63,70,66,63,100,95,67,29.97,29.88,4,0,10,0.63
2013-7-3,78,69,62,69,66,62,100,90,70,30.07,29.96,2,0,7,0.62
2013-7-4,74,70,64,71,68,64,100,93,87,30.10,30.03,3,0,8,0.00
2013-7-5,81,70,64,72,68,64,100,92,71,30.10,30.02,2,0,9,0.00
2013-7-6,75,71,67,70,68,67,100,93,82,30.07,30.01,2,0,7,0.03
2013-7-7,84,73,65,72,68,65,100,86,64,30.07,30.00,1,0,8,0.01
2013-7-8,84,74,69,77,69,-100,95,88,73,30.10,30.00,1,0,7,0.00
2013-7-9,87,80,75,78,75,72,92,85,73,30.04,29.92,1,0,6,0.01
2013-7-10,81,75,67,77,69,-100,99,87,81,29.94,29.79,0,0,7,0.29
2013-7-11,77,71,64,72,64,60,98,80,61,30.00,29.89,0,0,8,0.05
2013-7-12,81,68,61,65,61,58,93,78,52,30.08,30.01,3,0,11,0.00
2013-7-13,82,73,63,70,65,60,95,77,57,30.07,30.01,6,1,14,0.02
2013-7-14,90,78,68,75,71,66,96,81,58,30.15,30.06,3,1,9,0.02
2013-7-15,88,78,72,76,73,71,99,86,64,30.24,30.15,2,0,11,0.01
2013-7-16,90,81,75,78,74,71,92,79,62,30.29,30.22,0,0,4,0.00
2013-7-17,90,81,76,78,74,72,89,81,63,30.29,30.14,0,0,2,0.00
2013-7-18,91,83,76,78,75,72,89,78,60,30.17,29.99,0,0,6,0.00
2013-7-19,87,81,74,78,75,73,98,84,68,29.99,29.85,1,0,7,0.00
2013-7-20,87,74,67,77,71,67,100,90,71,29.92,29.82,2,0,13,0.51
2013-7-21,85,74,65,74,70,65,100,87,65,29.94,29.84,0,0,5,0.21
2013-7-22,79,71,68,74,70,68,100,97,82,29.89,29.75,2,0,10,0.21
2013-7-23,84,76,70,78,73,69,100,92,79,29.82,29.72,1,0,5,0.60
2013-7-24,76,59,57,64,42,-100,97,71,59,30.01,29.83,2,0,8,0.14
2013-7-25,77,65,57,63,58,55,94,81,58,30.07,29.97,0,0,6,0.00
2013-7-26,77,68,62,68,60,-100,96,79,61,30.06,29.93,0,0,6,0.00
2013-7-27,74,68,59,65,61,53,100,80,63,29.93,29.85,1,0,7,0.21
2013-7-28,71,62,52,60,54,50,96,77,55,30.04,29.92,1,0,7,0.01
2013-7-29,77,66,59,65,58,55,91,78,58,30.14,30.04,0,0,4,0.00
2013-7-30,79,67,65,68,64,58,99,90,68,30.17,30.06,2,0,10,0.09
2013-7-31,75,68,64,72,67,64,100,97,90,30.07,29.92,1,0,7,0.01
2013-8-1,78,71,65,70,66,62,100,87,59,30.00,29.93,0,0,4,0.04
2013-8-2,78,71,64,70,65,57,94,82,69,29.98,29.92,1,0,7,0.00
2013-8-3,81,75,69,74,70,65,95,84,72,30.02,29.91,0,0,4,0.00
2013-8-4,78,69,60,65,60,55,90,75,51,30.13,30.02,3,0,9,0.00
2013-8-5,81,70,61,67,62,57,98,77,52,30.09,29.90,3,0,9,0.00
2013-8-6,81,73,68,75,69,63,97,88,74,29.92,29.86,1,0,6,0.00
2013-8-7,81,75,70,76,73,70,100,94,82,29.89,29.83,1,0,6,0.00
2013-8-8,84,76,71,78,73,70,100,91,75,29.92,29.83,0,0,6,0.39
2013-8-9,82,74,70,75,72,69,100,93,71,30.00,29.87,0,0,4,0.01
2013-8-10,85,76,69,72,69,66,92,78,60,30.07,29.99,1,0,6,0.01
2013-8-21,88,76,67,74,70,67,100,85,58,30.12,30.02,1,0,7,0.35
2013-8-22,84,76,70,75,71,68,93,84,71,30.07,29.99,0,0,4,0.00
2013-8-23,84,75,68,72,69,67,98,81,60,30.09,30.01,1,0,8,0.00
2013-8-24,87,75,64,70,64,58,94,70,44,30.21,30.09,3,0,8,0.00
2013-8-25,89,78,67,69,59,-100,83,57,42,30.27,30.17,1,0,6,0.00
2013-8-26,86,78,69,76,72,66,98,83,68,30.20,30.04,0,0,5,0.00
2013-8-27,87,76,72,78,73,71,98,91,72,30.06,29.97,0,0,4,0.00
2013-8-29,90,79,72,76,73,69,100,82,56,29.99,29.92,2,0,7,0.00
2013-8-30,90,80,70,77,73,69,97,80,61,29.94,29.80,1,0,5,0.00
2013-8-31,93,80,67,79,74,66,99,84,63,29.82,29.68,3,0,13,1.32
2013-9-1,83,72,67,75,67,-100,100,90,77,29.84,29.69,2,0,8,0.13
2013-9-2,82,74,67,74,69,66,100,88,64,29.87,29.77,0,0,3,0.00
2013-9-3,75,67,59,66,60,56,94,80,59,30.03,29.87,0,0,8,0.00
2013-9-4,81,70,60,64,60,56,91,74,57,30.13,30.04,1,0,5,0.00
2013-10-18,64,53,45,51,47,44,99,82,58,30.01,29.92,2,0,9,0.01
2013-10-19,50,46,42,46,43,38,100,89,70,30.00,29.86,0,0,5,0.22
2013-10-20,62,50,41,47,40,-100,93,74,55,30.02,29.95,3,0,12,0.01
2013-10-21,61,52,45,51,46,37,91,80,68,29.99,29.90,1,0,8,0.00
2013-10-22,52,44,35,42,35,30,91,71,51,30.04,29.80,1,0,6,0.02
2013-10-23,45,41,37,44,37,33,98,85,68,30.08,29.75,1,0,6,0.01
2013-10-24,38,36,34,37,33,30,96,88,78,30.33,30.07,1,0,5,0.02
2013-12-9,30,25,21,30,23,17,100,90,76,30.28,30.04,4,1,10,0.00
2013-12-10,26,21,15,19,17,13,96,85,66,30.38,30.23,5,2,14,0.00
2013-12-11,31,24,14,26,20,10,97,84,77,30.58,30.36,4,2,11,0.00
2013-12-12,23,14,3,12,5,0,93,69,41,30.61,30.39,4,1,11,0.00
2013-12-13,39,30,22,32,22,12,98,73,55,30.39,30.12,5,2,12,0.01
2013-12-14,36,32,29,36,30,-100,100,97,97,30.10,29.74,5,2,13,0.25
2013-12-15,29,26,23,28,24,21,97,94,93,30.09,29.98,4,2,11,0.25